Time;durP1;ratioP1;P1;durP2;ratioP2;P2;SDS_P1;SDS_P2;PMS_P1;PMS_P2;Temp;Humidity;BMP_temperature;BMP_pressure;BME280_temperature;BME280_humidity;BME280_pressure;Samples;Min_cycle;Max_cycle;Signal;HPM_P1;HPM_P2
2023/09/14 00:00:50;;;;;;;;;;;;;;;20.48;44.43;99807.03;3149307;28;20416;-74
2023/09/14 00:02:20;;;;;;;;;;;;;;;20.44;44.57;99809.13;3159056;28;20208;-73
2023/09/14 00:03:52;;;;;;;;;;;;;;;20.42;44.47;99808.41;3159338;28;19927;-73
2023/09/14 00:05:23;;;;;;;;;;;;;;;20.41;44.61;99800.63;3158599;28;20385;-73
2023/09/14 00:06:54;;;;;;;;;;;;;;;20.35;44.94;99796.69;3138121;28;19932;-73
2023/09/14 00:08:29;;;;;;;;;;;;;;;20.33;45.19;99805.72;3156355;28;20380;-73
2023/09/14 00:10:01;;;;;;;;;;;;;;;20.35;44.99;99801.13;3158548;28;19999;-73
2023/09/14 00:11:32;;;;;;;;;;;;;;;20.36;44.93;99806.28;3143208;28;19940;-72
2023/09/14 00:13:03;;;;;;;;;;;;;;;20.35;44.83;99803.75;3150054;28;19981;-72
2023/09/14 00:14:35;;;;;;;;;;;;;;;20.34;44.88;99804.75;3155768;28;19935;-72
2023/09/14 00:16:08;;;;;;;;;;;;;;;20.33;44.86;99800.44;3159221;28;19924;-72
2023/09/14 00:17:39;;;;;;;;;;;;;;;20.33;45.06;99805.72;3150622;28;19924;-72
2023/09/14 00:19:11;;;;;;;;;;;;;;;20.32;44.96;99799.59;3153744;28;20037;-73
2023/09/14 00:20:42;;;;;;;;;;;;;;;20.30;44.98;99798.88;3152571;28;19928;-73
2023/09/14 00:22:13;;;;;;;;;;;;;;;20.32;45.11;99796.09;3141872;28;20243;-73
2023/09/14 00:23:44;;;;;;;;;;;;;;;20.32;45.14;99798.72;3145817;28;19929;-74
2023/09/14 00:25:15;;;;;;;;;;;;;;;20.29;45.09;99794.56;3148509;28;19927;-73
2023/09/14 00:26:46;;;;;;;;;;;;;;;20.29;45.00;99805.16;3146327;28;20433;-73
2023/09/14 00:28:18;;;;;;;;;;;;;;;20.28;45.05;99800.81;3146222;28;19947;-73
2023/09/14 00:29:48;;;;;;;;;;;;;;;20.27;45.07;99803.59;3147952;28;20040;-73
2023/09/14 00:31:21;;;;;;;;;;;;;;;20.25;45.08;99798.44;3158020;28;19928;-74
2023/09/14 00:32:52;;;;;;;;;;;;;;;20.23;45.23;99810.94;3145914;28;19931;-73
2023/09/14 00:34:24;;;;;;;;;;;;;;;20.21;45.16;99805.78;3146260;28;19947;-73
2023/09/14 00:35:54;;;;;;;;;;;;;;;20.22;45.28;99811.91;3158415;28;19932;-73
2023/09/14 00:37:26;;;;;;;;;;;;;;;20.17;45.25;99812.31;3139296;28;19929;-75
2023/09/14 00:38:56;;;;;;;;;;;;;;;20.15;45.30;99811.59;3156817;28;19928;-71
2023/09/14 00:40:28;;;;;;;;;;;;;;;20.17;45.48;99806.16;3145322;28;19924;-71
2023/09/14 00:41:59;;;;;;;;;;;;;;;20.16;45.54;99805.34;3143711;28;19924;-72
2023/09/14 00:43:30;;;;;;;;;;;;;;;20.17;45.46;99803.53;3151364;28;19992;-71
2023/09/14 00:45:01;;;;;;;;;;;;;;;20.20;45.49;99804.13;3151324;28;20016;-71
2023/09/14 00:46:34;;;;;;;;;;;;;;;20.19;45.23;99799.78;3145273;28;20314;-71
2023/09/14 00:48:05;;;;;;;;;;;;;;;20.19;45.42;99801.59;3145688;28;19929;-71
2023/09/14 00:49:36;;;;;;;;;;;;;;;20.18;45.45;99805.22;3149995;28;19934;-71
2023/09/14 00:51:07;;;;;;;;;;;;;;;20.17;45.56;99803.53;3158209;28;19993;-71
2023/09/14 00:52:39;;;;;;;;;;;;;;;20.18;45.52;99811.34;3141718;28;19985;-71
2023/09/14 00:54:09;;;;;;;;;;;;;;;20.18;45.53;99806.06;3141748;28;19978;-71
2023/09/14 00:55:42;;;;;;;;;;;;;;;20.16;45.73;99810.63;3145835;28;19924;-71
2023/09/14 00:57:13;;;;;;;;;;;;;;;20.15;45.69;99794.91;3141165;28;19989;-71
2023/09/14 00:58:47;;;;;;;;;;;;;;;20.13;45.80;99795.03;3158742;28;19924;-71
2023/09/14 01:00:17;;;;;;;;;;;;;;;20.12;45.78;99797.81;3146212;28;19924;-71
2023/09/14 01:01:50;;;;;;;;;;;;;;;20.10;45.98;99794.44;3145559;28;20026;-72
2023/09/14 01:03:21;;;;;;;;;;;;;;;20.09;46.15;99793.63;3145426;28;19928;-72
2023/09/14 01:04:53;;;;;;;;;;;;;;;20.08;46.20;99786.63;3154795;28;20338;-72
2023/09/14 01:06:25;;;;;;;;;;;;;;;20.08;46.02;99793.75;3157782;28;19924;-71
2023/09/14 01:07:56;;;;;;;;;;;;;;;20.06;46.05;99785.13;3145461;28;20003;-69
2023/09/14 01:09:28;;;;;;;;;;;;;;;20.04;46.23;99785.25;3145570;28;19924;-71
2023/09/14 01:11:01;;;;;;;;;;;;;;;20.02;46.32;99787.16;3143087;28;20402;-71
2023/09/14 01:12:32;;;;;;;;;;;;;;;20.03;46.43;99791.50;3140113;28;19932;-71
2023/09/14 01:14:08;;;;;;;;;;;;;;;20.02;46.47;99794.25;3150374;28;19924;-70
2023/09/14 01:15:44;;;;;;;;;;;;;;;20.03;46.65;99788.84;3158030;28;19923;-71
2023/09/14 01:17:23;;;;;;;;;;;;;;;20.01;46.44;99790.78;3153747;28;20409;-71
2023/09/14 01:18:57;;;;;;;;;;;;;;;19.96;46.99;99785.88;3150434;28;19924;-71
2023/09/14 01:20:47;;;;;;;;;;;;;;;19.90;47.20;99783.75;3158085;28;20014;-71
2023/09/14 01:22:22;;;;;;;;;;;;;;;19.87;47.27;99791.94;3128516;28;19925;-71
2023/09/14 01:23:56;;;;;;;;;;;;;;;19.88;47.33;99796.28;3138786;28;19935;-69
2023/09/14 01:25:37;;;;;;;;;;;;;;;19.89;47.25;99786.53;3150796;28;19988;-71
2023/09/14 01:27:09;;;;;;;;;;;;;;;19.84;47.30;99792.19;3152186;28;19924;-71
2023/09/14 01:28:39;;;;;;;;;;;;;;;19.82;47.40;99791.50;3150436;28;19981;-71
2023/09/14 01:30:11;;;;;;;;;;;;;;;19.83;47.58;99797.63;3157968;28;20426;-71
2023/09/14 01:31:42;;;;;;;;;;;;;;;19.83;47.48;99793.16;3158299;28;20036;-71
2023/09/14 01:33:14;;;;;;;;;;;;;;;19.84;47.34;99789.56;3157882;28;20047;-71
2023/09/14 01:34:46;;;;;;;;;;;;;;;19.83;47.47;99789.69;3149984;28;19974;-71
2023/09/14 01:36:20;;;;;;;;;;;;;;;19.83;47.66;99789.69;3141218;28;20035;-71
2023/09/14 01:37:53;;;;;;;;;;;;;;;19.83;47.70;99793.16;3137715;28;19966;-71
2023/09/14 01:39:25;;;;;;;;;;;;;;;19.85;47.58;99795.69;3145295;28;19924;-71
2023/09/14 01:40:58;;;;;;;;;;;;;;;19.85;47.69;99801.00;3141812;28;19924;-72
2023/09/14 01:42:30;;;;;;;;;;;;;;;19.87;47.60;99799.88;3132831;28;19929;-71
2023/09/14 01:44:02;;;;;;;;;;;;;;;19.91;47.52;99803.13;3156944;28;20291;-71
2023/09/14 01:45:34;;;;;;;;;;;;;;;19.92;47.55;99800.31;3145835;28;20044;-70
2023/09/14 01:47:05;;;;;;;;;;;;;;;19.93;47.42;99806.44;3145102;28;20432;-71
2023/09/14 01:48:36;;;;;;;;;;;;;;;19.94;47.48;99814.25;3145175;28;19928;-72
2023/09/14 01:50:07;;;;;;;;;;;;;;;19.96;47.58;99811.47;3147876;28;19932;-72
2023/09/14 01:51:39;;;;;;;;;;;;;;;19.94;47.71;99806.34;3148864;28;19984;-72
2023/09/14 01:53:10;;;;;;;;;;;;;;;19.96;47.63;99806.19;3152134;28;19924;-72
2023/09/14 01:54:41;;;;;;;;;;;;;;;19.95;47.52;99808.00;3151503;28;19950;-72
2023/09/14 01:56:13;;;;;;;;;;;;;;;19.92;47.78;99816.19;3145253;28;19928;-72
2023/09/14 01:57:45;;;;;;;;;;;;;;;19.90;47.92;99815.47;3148310;28;20030;-72
2023/09/14 01:59:15;;;;;;;;;;;;;;;19.88;47.90;99813.94;3154063;28;19959;-71
2023/09/14 02:00:47;;;;;;;;;;;;;;;19.84;47.81;99812.50;3145210;28;19928;-74
2023/09/14 02:02:17;;;;;;;;;;;;;;;19.86;47.85;99816.69;3146438;28;19924;-72
2023/09/14 02:03:49;;;;;;;;;;;;;;;19.87;47.88;99817.53;3154637;28;19924;-74
2023/09/14 02:05:19;;;;;;;;;;;;;;;19.87;48.02;99815.72;3145145;28;19931;-74
2023/09/14 02:06:51;;;;;;;;;;;;;;;19.86;48.19;99823.78;3144786;28;19935;-72
2023/09/14 02:08:22;;;;;;;;;;;;;;;19.85;48.26;99819.50;3135002;28;19928;-72
2023/09/14 02:09:53;;;;;;;;;;;;;;;19.83;48.40;99824.06;3143429;28;19924;-73
2023/09/14 02:11:25;;;;;;;;;;;;;;;19.81;48.28;99818.88;3141365;28;19924;-73
2023/09/14 02:12:56;;;;;;;;;;;;;;;19.80;48.27;99824.31;3141256;28;19986;-68
2023/09/14 02:14:27;;;;;;;;;;;;;;;19.78;48.37;99819.97;3146679;28;19925;-70
2023/09/14 02:15:58;;;;;;;;;;;;;;;19.75;48.32;99825.50;3156337;28;19930;-71
2023/09/14 02:17:30;;;;;;;;;;;;;;;19.71;48.47;99824.09;3161902;28;19924;-70
2023/09/14 02:19:02;;;;;;;;;;;;;;;19.73;48.51;99818.69;3149698;28;19928;-68
2023/09/14 02:20:35;;;;;;;;;;;;;;;19.75;48.48;99824.69;3148963;28;20003;-68
2023/09/14 02:22:06;;;;;;;;;;;;;;;19.77;48.36;99823.59;3148886;28;19967;-69
2023/09/14 02:23:37;;;;;;;;;;;;;;;19.80;48.36;99824.31;3141954;28;19924;-68
2023/09/14 02:25:09;;;;;;;;;;;;;;;19.82;48.46;99827.63;3149010;28;19977;-69
2023/09/14 02:26:41;;;;;;;;;;;;;;;19.82;48.35;99825.84;3149292;28;20012;-69
2023/09/14 02:28:13;;;;;;;;;;;;;;;19.83;48.37;99826.69;3148937;28;20320;-69
2023/09/14 02:29:44;;;;;;;;;;;;;;;19.81;48.70;99825.97;3149738;28;19932;-68
2023/09/14 02:31:15;;;;;;;;;;;;;;;19.78;48.67;99821.78;3161623;28;19992;-72
2023/09/14 02:32:46;;;;;;;;;;;;;;;19.72;48.74;99820.47;3148954;28;19928;-73
2023/09/14 02:34:17;;;;;;;;;;;;;;;19.76;48.77;99826.38;3147088;28;19946;-72
2023/09/14 02:35:50;;;;;;;;;;;;;;;19.75;48.67;99825.50;3146650;28;19936;-73
2023/09/14 02:37:21;;;;;;;;;;;;;;;19.74;48.73;99823.84;3149048;28;19935;-73
2023/09/14 02:38:53;;;;;;;;;;;;;;;19.73;48.72;99824.81;3146761;28;20009;-71
2023/09/14 02:40:23;;;;;;;;;;;;;;;19.74;48.80;99826.47;3148049;28;19932;-73
2023/09/14 02:41:56;;;;;;;;;;;;;;;19.76;48.87;99829.84;3145579;28;19924;-73
2023/09/14 02:43:27;;;;;;;;;;;;;;;19.76;48.50;99837.78;3145966;28;19932;-72
2023/09/14 02:44:58;;;;;;;;;;;;;;;19.75;48.73;99827.31;3154417;28;19924;-70
2023/09/14 02:46:29;;;;;;;;;;;;;;;19.75;48.78;99828.16;3154837;28;19985;-71
2023/09/14 02:48:00;;;;;;;;;;;;;;;19.77;48.85;99830.69;3153151;28;19924;-70
2023/09/14 02:49:31;;;;;;;;;;;;;;;19.77;48.73;99828.88;3153997;28;19931;-71
2023/09/14 02:51:03;;;;;;;;;;;;;;;19.80;48.70;99833.06;3149259;28;19930;-70
2023/09/14 02:52:33;;;;;;;;;;;;;;;19.81;48.71;99829.44;3149723;28;19924;-71
2023/09/14 02:54:05;;;;;;;;;;;;;;;19.81;48.65;99831.25;3138622;28;19978;-71
2023/09/14 02:55:35;;;;;;;;;;;;;;;19.80;48.75;99833.06;3149231;28;19929;-71
2023/09/14 02:57:10;;;;;;;;;;;;;;;19.78;48.80;99832.34;3149038;28;20222;-71
2023/09/14 02:58:41;;;;;;;;;;;;;;;19.77;48.88;99831.50;3160709;28;19977;-70
2023/09/14 03:00:17;;;;;;;;;;;;;;;19.77;48.84;99830.69;3154530;28;19925;-71
2023/09/14 03:01:49;;;;;;;;;;;;;;;19.75;48.76;99830.78;3148878;28;19982;-70
2023/09/14 03:03:21;;;;;;;;;;;;;;;19.76;48.91;99832.50;3157886;28;19924;-71
2023/09/14 03:04:51;;;;;;;;;;;;;;;19.73;48.89;99831.91;3158777;28;19928;-70
2023/09/14 03:06:23;;;;;;;;;;;;;;;19.71;48.96;99828.56;3152681;28;19924;-71
2023/09/14 03:07:53;;;;;;;;;;;;;;;19.68;49.05;99831.44;3156156;28;19924;-71
2023/09/14 03:09:25;;;;;;;;;;;;;;;19.66;49.16;99826.28;3150324;28;19928;-71
2023/09/14 03:10:55;;;;;;;;;;;;;;;19.61;49.28;99828.44;3152372;28;19947;-72
2023/09/14 03:12:28;;;;;;;;;;;;;;;19.59;49.34;99824.25;3150450;28;19935;-72
2023/09/14 03:13:59;;;;;;;;;;;;;;;19.58;49.21;99826.06;3141990;28;19990;-72
2023/09/14 03:15:30;;;;;;;;;;;;;;;19.59;49.38;99824.25;3148789;28;20011;-72
2023/09/14 03:17:01;;;;;;;;;;;;;;;19.61;49.25;99828.44;3148924;28;19928;-72
2023/09/14 03:18:33;;;;;;;;;;;;;;;19.58;49.27;99827.84;3148455;28;20409;-72
2023/09/14 03:20:06;;;;;;;;;;;;;;;19.56;49.27;99827.97;3143766;28;20024;-70
2023/09/14 03:21:38;;;;;;;;;;;;;;;19.55;49.38;99828.94;3143179;28;19928;-71
2023/09/14 03:23:08;;;;;;;;;;;;;;;19.54;49.47;99841.28;3142444;28;20020;-70
2023/09/14 03:24:40;;;;;;;;;;;;;;;19.54;49.49;99832.53;3143347;28;19928;-70
2023/09/14 03:26:12;;;;;;;;;;;;;;;19.54;49.44;99833.38;3153076;28;19928;-71
2023/09/14 03:27:45;;;;;;;;;;;;;;;19.52;49.45;99827.41;3143233;28;19928;-70
2023/09/14 03:29:15;;;;;;;;;;;;;;;19.52;49.51;99830.03;3141297;28;20344;-70
2023/09/14 03:30:47;;;;;;;;;;;;;;;19.52;49.49;99827.41;3151197;28;19962;-70
2023/09/14 03:32:17;;;;;;;;;;;;;;;19.54;49.46;99827.25;3145088;28;19932;-70
2023/09/14 03:33:51;;;;;;;;;;;;;;;19.56;49.47;99822.69;3141203;28;20015;-71
2023/09/14 03:35:23;;;;;;;;;;;;;;;19.57;49.29;99826.16;3143959;28;20444;-71
2023/09/14 03:36:54;;;;;;;;;;;;;;;19.55;49.47;99818.34;3146945;28;20286;-71
2023/09/14 03:38:25;;;;;;;;;;;;;;;19.50;49.53;99817.91;3143091;28;19932;-70
2023/09/14 03:39:56;;;;;;;;;;;;;;;19.45;49.56;99809.53;3133822;28;20016;-71
2023/09/14 03:41:27;;;;;;;;;;;;;;;19.39;49.74;99810.88;3137751;28;20034;-70
2023/09/14 03:43:00;;;;;;;;;;;;;;;19.38;49.70;99808.38;3144905;28;19977;-71
2023/09/14 03:44:31;;;;;;;;;;;;;;;19.36;49.79;99807.63;3153404;28;20377;-71
2023/09/14 03:46:02;;;;;;;;;;;;;;;19.36;49.74;99805.00;3153976;28;19928;-71
2023/09/14 03:47:33;;;;;;;;;;;;;;;19.33;49.73;99804.28;3149634;28;19935;-71
2023/09/14 03:49:06;;;;;;;;;;;;;;;19.33;49.89;99803.44;3154070;28;19955;-72
2023/09/14 03:50:37;;;;;;;;;;;;;;;19.31;49.91;99808.00;3154268;28;20264;-72
2023/09/14 03:52:09;;;;;;;;;;;;;;;19.29;50.02;99813.44;3153909;28;20416;-73
2023/09/14 03:53:39;;;;;;;;;;;;;;;19.26;49.85;99811.03;3130654;28;20027;-72
2023/09/14 03:55:11;;;;;;;;;;;;;;;19.21;50.30;99813.19;3139536;28;19939;-73
2023/09/14 03:56:41;;;;;;;;;;;;;;;19.14;50.33;99812.03;3140155;28;19929;-71
2023/09/14 03:58:14;;;;;;;;;;;;;;;19.08;50.43;99815.16;3148627;28;19928;-71
2023/09/14 03:59:47;;;;;;;;;;;;;;;19.04;50.52;99816.34;3146515;28;19932;-72
2023/09/14 04:01:17;;;;;;;;;;;;;;;19.04;50.51;99814.56;3147657;28;19928;-72
2023/09/14 04:02:49;;;;;;;;;;;;;;;19.05;50.67;99820.69;3148419;28;19928;-70
2023/09/14 04:04:21;;;;;;;;;;;;;;;19.03;50.63;99817.31;3153758;28;20014;-71
2023/09/14 04:05:51;;;;;;;;;;;;;;;19.01;50.67;99819.25;3153665;28;19934;-70
2023/09/14 04:07:23;;;;;;;;;;;;;;;19.00;50.66;99815.78;3150280;28;20389;-71
2023/09/14 04:08:53;;;;;;;;;;;;;;;19.01;50.63;99821.88;3142251;28;19928;-71
2023/09/14 04:10:25;;;;;;;;;;;;;;;19.00;50.58;99817.56;3149635;28;20009;-71
2023/09/14 04:11:56;;;;;;;;;;;;;;;18.99;50.65;99821.16;3128825;28;20010;-71
2023/09/14 04:13:31;;;;;;;;;;;;;;;18.97;50.74;99815.19;3143502;28;20459;-71
2023/09/14 04:15:02;;;;;;;;;;;;;;;18.94;50.81;99818.91;3151142;28;20106;-72
2023/09/14 04:16:34;;;;;;;;;;;;;;;18.93;50.84;99811.97;3142570;28;20481;-72
2023/09/14 04:18:04;;;;;;;;;;;;;;;18.89;50.97;99814.94;3149632;28;19928;-73
2023/09/14 04:19:36;;;;;;;;;;;;;;;18.93;50.84;99819.88;3146031;28;20261;-72
2023/09/14 04:21:07;;;;;;;;;;;;;;;18.96;50.74;99819.63;3147623;28;19978;-71
2023/09/14 04:22:38;;;;;;;;;;;;;;;18.98;50.82;99825.59;3147781;28;20462;-71
2023/09/14 04:24:10;;;;;;;;;;;;;;;19.02;50.70;99829.69;3137708;28;19929;-71
2023/09/14 04:25:44;;;;;;;;;;;;;;;19.03;50.68;99828.72;3132706;28;19928;-70
2023/09/14 04:27:16;;;;;;;;;;;;;;;19.05;50.57;99825.97;3140918;28;20000;-68
2023/09/14 04:28:48;;;;;;;;;;;;;;;19.03;50.83;99826.06;3143862;28;19992;-69
2023/09/14 04:30:20;;;;;;;;;;;;;;;19.00;50.94;99828.97;3151130;28;19962;-68
2023/09/14 04:31:50;;;;;;;;;;;;;;;18.99;50.89;99832.56;3140786;28;19935;-69
2023/09/14 04:33:22;;;;;;;;;;;;;;;18.99;51.11;99829.06;3140664;28;19928;-71
2023/09/14 04:34:52;;;;;;;;;;;;;;;19.00;51.05;99836.03;3141208;28;19928;-71
2023/09/14 04:36:24;;;;;;;;;;;;;;;19.00;50.96;99838.69;3140635;28;20432;-69
2023/09/14 04:37:54;;;;;;;;;;;;;;;18.95;51.42;99836.41;3140434;28;20412;-69
2023/09/14 04:39:26;;;;;;;;;;;;;;;18.93;51.51;99835.72;3135910;28;20089;-73
2023/09/14 04:40:57;;;;;;;;;;;;;;;18.95;51.33;99828.47;3135005;28;19936;-70
2023/09/14 04:42:28;;;;;;;;;;;;;;;19.00;51.22;99828.13;3137334;28;20016;-76
2023/09/14 04:44:02;;;;;;;;;;;;;;;19.03;51.16;99828.72;3148763;28;19970;-74
2023/09/14 04:45:33;;;;;;;;;;;;;;;19.03;51.33;99835.81;3153060;28;19927;-74
2023/09/14 04:47:05;;;;;;;;;;;;;;;18.99;51.45;99834.34;3149634;28;19928;-76
2023/09/14 04:48:38;;;;;;;;;;;;;;;18.96;51.58;99834.59;3147743;28;19988;-73
2023/09/14 04:50:09;;;;;;;;;;;;;;;18.93;51.53;99840.13;3147828;28;19936;-75
2023/09/14 04:51:40;;;;;;;;;;;;;;;18.95;51.53;99840.84;3153606;28;19935;-74
2023/09/14 04:53:12;;;;;;;;;;;;;;;18.94;51.62;99844.44;3133284;28;19936;-76
2023/09/14 04:54:42;;;;;;;;;;;;;;;18.91;51.85;99847.34;3133269;28;19939;-73
2023/09/14 04:56:14;;;;;;;;;;;;;;;18.83;52.21;99838.22;3137939;28;20002;-71
2023/09/14 04:57:44;;;;;;;;;;;;;;;18.81;52.23;99844.56;3146192;28;19928;-72
2023/09/14 04:59:17;;;;;;;;;;;;;;;18.79;52.27;99834.16;3149864;28;19928;-70
2023/09/14 05:00:48;;;;;;;;;;;;;;;18.72;52.60;99835.53;3140412;28;19995;-72
2023/09/14 05:02:20;;;;;;;;;;;;;;;18.69;52.61;99838.41;3142083;28;19932;-72
2023/09/14 05:03:50;;;;;;;;;;;;;;;18.71;52.72;99843.59;3152314;28;19928;-70
2023/09/14 05:05:22;;;;;;;;;;;;;;;18.72;52.67;99842.63;3141874;28;20057;-75
2023/09/14 05:06:53;;;;;;;;;;;;;;;18.72;52.55;99848.72;3145333;28;19986;-70
2023/09/14 05:08:25;;;;;;;;;;;;;;;18.72;52.66;99846.09;3139048;28;19928;-72
2023/09/14 05:09:55;;;;;;;;;;;;;;;18.74;52.66;99849.50;3140613;28;19934;-72
2023/09/14 05:11:27;;;;;;;;;;;;;;;18.78;52.75;99853.59;3140230;28;20449;-71
2023/09/14 05:12:58;;;;;;;;;;;;;;;18.80;52.85;99853.44;3142683;28;19928;-68
2023/09/14 05:14:31;;;;;;;;;;;;;;;18.85;52.52;99852.13;3146116;28;20124;-70
2023/09/14 05:16:02;;;;;;;;;;;;;;;18.91;52.43;99850.81;3134019;28;19932;-70
2023/09/14 05:17:33;;;;;;;;;;;;;;;18.95;52.32;99854.03;3140525;28;20318;-71
2023/09/14 05:19:05;;;;;;;;;;;;;;;18.96;52.40;99858.34;3152878;28;19928;-73
2023/09/14 05:20:36;;;;;;;;;;;;;;;18.95;52.35;99856.69;3151170;28;19932;-75
2023/09/14 05:22:07;;;;;;;;;;;;;;;18.96;52.46;99856.56;3143094;28;20448;-75
2023/09/14 05:23:39;;;;;;;;;;;;;;;18.93;52.71;99861.22;3143097;28;19950;-75
2023/09/14 05:25:09;;;;;;;;;;;;;;;18.89;52.98;99859.81;3135292;28;19928;-75
2023/09/14 05:26:41;;;;;;;;;;;;;;;18.84;53.25;99854.88;3145943;28;20445;-75
2023/09/14 05:28:12;;;;;;;;;;;;;;;18.78;53.63;99856.22;3143797;28;20327;-76
2023/09/14 05:29:45;;;;;;;;;;;;;;;18.78;53.51;99863.28;3147250;28;20020;-76
2023/09/14 05:31:16;;;;;;;;;;;;;;;18.79;53.45;99865.81;3147396;28;19928;-74
2023/09/14 05:32:47;;;;;;;;;;;;;;;18.76;53.90;99860.78;3147019;28;20405;-68
2023/09/14 05:34:18;;;;;;;;;;;;;;;18.73;54.01;99863.66;3147507;28;20344;-69
2023/09/14 05:35:50;;;;;;;;;;;;;;;18.76;54.06;99867.84;3138739;28;19936;-67
2023/09/14 05:37:21;;;;;;;;;;;;;;;18.73;54.43;99866.28;3140193;28;19929;-69
2023/09/14 05:38:52;;;;;;;;;;;;;;;18.76;54.43;99867.84;3140393;28;20238;-68
2023/09/14 05:40:23;;;;;;;;;;;;;;;18.81;54.43;99869.19;3137903;28;20069;-72
2023/09/14 05:41:55;;;;;;;;;;;;;;;18.86;54.31;99863.53;3135041;28;20484;-68
2023/09/14 05:43:26;;;;;;;;;;;;;;;18.96;54.30;99871.53;3142993;28;19928;-67
2023/09/14 05:44:58;;;;;;;;;;;;;;;19.11;53.99;99870.34;3147599;28;20194;-68
2023/09/14 05:46:30;;;;;;;;;;;;;;;19.21;54.00;99867.81;3148459;28;20016;-68
2023/09/14 05:48:04;;;;;;;;;;;;;;;19.32;53.85;99862.50;3143871;28;19929;-68
2023/09/14 05:49:37;;;;;;;;;;;;;;;19.40;53.64;99856.59;3138899;28;19940;-68
2023/09/14 05:51:07;;;;;;;;;;;;;;;19.52;53.49;99866.16;3139883;28;19967;-70
2023/09/14 05:52:39;;;;;;;;;;;;;;;19.53;53.64;99865.22;3137352;28;19928;-70
2023/09/14 05:54:09;;;;;;;;;;;;;;;19.59;53.65;99859.44;3151457;28;19928;-67
2023/09/14 05:55:41;;;;;;;;;;;;;;;19.74;53.42;99860.84;3134826;28;20424;-70
2023/09/14 05:57:13;;;;;;;;;;;;;;;19.85;53.08;99861.78;3139528;28;20445;-72
2023/09/14 05:58:45;;;;;;;;;;;;;;;19.90;53.10;99860.41;3139860;28;19928;-70
2023/09/14 06:00:19;;;;;;;;;;;;;;;19.92;53.27;99858.47;3143110;28;19938;-71
2023/09/14 06:01:50;;;;;;;;;;;;;;;19.89;53.49;99866.66;3139987;28;19936;-74
2023/09/14 06:03:22;;;;;;;;;;;;;;;19.81;53.74;99860.31;3142715;28;20420;-72
2023/09/14 06:04:53;;;;;;;;;;;;;;;19.76;53.76;99858.91;3139789;28;19993;-72
2023/09/14 06:06:24;;;;;;;;;;;;;;;19.74;53.75;99860.84;3148283;28;20401;-73
2023/09/14 06:07:55;;;;;;;;;;;;;;;19.80;53.75;99854.22;3152416;28;19947;-74
2023/09/14 06:09:27;;;;;;;;;;;;;;;19.87;53.76;99858.00;3152178;28;19928;-72
2023/09/14 06:10:58;;;;;;;;;;;;;;;19.87;53.85;99860.66;3136150;28;19979;-72
2023/09/14 06:12:30;;;;;;;;;;;;;;;19.87;53.94;99854.53;3138850;28;19928;-71
2023/09/14 06:14:01;;;;;;;;;;;;;;;19.87;54.01;99855.38;3137572;28;20377;-71
2023/09/14 06:15:34;;;;;;;;;;;;;;;19.90;54.11;99857.75;3139466;28;20081;-79
2023/09/14 06:17:04;;;;;;;;;;;;;;;19.93;54.11;99854.00;3139857;28;19985;-75
2023/09/14 06:18:36;;;;;;;;;;;;;;;19.99;53.80;99850.84;3139807;28;20431;-75
2023/09/14 06:20:07;;;;;;;;;;;;;;;20.05;53.60;99860.91;3146769;28;19928;-73
2023/09/14 06:21:40;;;;;;;;;;;;;;;20.16;53.46;99847.66;3152278;28;19971;-73
2023/09/14 06:23:10;;;;;;;;;;;;;;;20.31;52.85;99848.16;3147131;28;20398;-77
2023/09/14 06:24:42;;;;;;;;;;;;;;;20.41;52.79;99848.22;3143720;28;20002;-81
2023/09/14 06:26:13;;;;;;;;;;;;;;;20.46;52.98;99851.28;3136793;28;19928;-73
2023/09/14 06:27:45;;;;;;;;;;;;;;;20.49;52.67;99856.31;3147134;28;19928;-72
2023/09/14 06:29:16;;;;;;;;;;;;;;;20.56;52.66;99857.53;3148694;28;20016;-71
2023/09/14 06:30:49;;;;;;;;;;;;;;;20.62;52.63;99857.00;3139920;28;20478;-71
2023/09/14 06:32:19;;;;;;;;;;;;;;;20.70;52.16;99848.38;3139733;28;19929;-75
2023/09/14 06:33:51;;;;;;;;;;;;;;;20.82;52.07;99860.56;3139801;28;19981;-75
2023/09/14 06:35:22;;;;;;;;;;;;;;;20.94;51.88;99860.44;3147083;28;19928;-74
2023/09/14 06:36:53;;;;;;;;;;;;;;;21.06;51.63;99865.53;3152212;28;19997;-74
2023/09/14 06:38:24;;;;;;;;;;;;;;;21.18;51.49;99866.25;3151883;28;19928;-75
2023/09/14 06:39:56;;;;;;;;;;;;;;;21.27;51.24;99864.59;3148627;28;20458;-76
2023/09/14 06:41:27;;;;;;;;;;;;;;;21.46;51.26;99864.66;3139322;28;20020;-71
2023/09/14 06:42:58;;;;;;;;;;;;;;;21.68;51.04;99871.53;3135757;28;19932;-83
2023/09/14 06:44:30;;;;;;;;;;;;;;;21.87;50.76;99870.66;3134079;28;19935;-76
2023/09/14 06:46:03;;;;;;;;;;;;;;;21.98;50.65;99865.22;3133737;28;19997;-76
2023/09/14 06:47:34;;;;;;;;;;;;;;;22.19;50.77;99873.03;3142998;28;20465;-73
2023/09/14 06:49:09;;;;;;;;;;;;;;;22.43;50.82;99866.44;3138208;28;19929;-73
2023/09/14 06:50:40;;;;;;;;;;;;;;;22.69;50.45;99872.78;3139016;28;19929;-75
2023/09/14 06:52:32;;;;;;;;;;;;;;;23.06;50.21;99865.78;3134354;28;19936;-79
2023/09/14 06:54:04;;;;;;;;;;;;;;;23.54;49.79;99873.44;3130792;28;20453;-79
2023/09/14 06:55:37;;;;;;;;;;;;;;;23.91;49.19;99875.16;3137647;28;20364;-77
2023/09/14 06:57:09;;;;;;;;;;;;;;;24.34;49.00;99870.81;3137718;28;19932;-83
2023/09/14 06:58:39;;;;;;;;;;;;;;;24.69;48.14;99864.56;3147214;28;19928;-74
2023/09/14 07:00:16;;;;;;;;;;;;;;;25.08;47.83;99864.09;3130421;28;20001;-74
2023/09/14 07:01:53;;;;;;;;;;;;;;;25.45;47.04;99862.06;3141988;28;19928;-75
2023/09/14 07:03:24;;;;;;;;;;;;;;;25.80;46.77;99860.94;3145030;28;19928;-75
2023/09/14 07:04:55;;;;;;;;;;;;;;;26.06;46.06;99869.63;3142122;28;20122;-78
2023/09/14 07:06:27;;;;;;;;;;;;;;;26.40;45.36;99870.41;3145185;28;20431;-75
2023/09/14 07:07:58;;;;;;;;;;;;;;;26.61;44.89;99864.56;3151916;28;19932;-75
2023/09/14 07:09:30;;;;;;;;;;;;;;;26.92;44.40;99872.66;3143532;28;20385;-76
2023/09/14 07:11:01;;;;;;;;;;;;;;;27.17;44.23;99862.69;3147639;28;19936;-73
2023/09/14 07:12:33;;;;;;;;;;;;;;;27.43;43.78;99859.72;3154542;28;19978;-76
2023/09/14 07:14:05;;;;;;;;;;;;;;;27.62;42.89;99871.78;3144773;28;19954;-76
2023/09/14 07:15:35;;;;;;;;;;;;;;;27.61;42.21;99860.25;3138654;28;19959;-79
2023/09/14 07:17:09;;;;;;;;;;;;;;;27.65;42.04;99860.72;3151199;28;20019;-73
2023/09/14 07:18:40;;;;;;;;;;;;;;;27.53;41.08;99862.13;3154443;28;20725;-70
2023/09/14 07:20:12;;;;;;;;;;;;;;;27.45;41.63;99860.38;3152167;28;19928;-68
2023/09/14 07:21:42;;;;;;;;;;;;;;;27.56;41.55;99867.97;3138928;28;19958;-71
2023/09/14 07:23:15;;;;;;;;;;;;;;;27.73;41.14;99866.00;3141191;28;20002;-73
2023/09/14 07:24:46;;;;;;;;;;;;;;;28.06;40.91;99857.75;3141468;28;20559;-70
2023/09/14 07:26:17;;;;;;;;;;;;;;;28.31;40.40;99861.03;3137735;28;19932;-69
2023/09/14 07:27:49;;;;;;;;;;;;;;;28.43;40.34;99851.56;3140009;28;19979;-70
2023/09/14 07:29:20;;;;;;;;;;;;;;;28.74;40.10;99859.41;3150840;28;20291;-70
2023/09/14 07:30:52;;;;;;;;;;;;;;;29.15;39.43;99852.72;3142476;28;19984;-70
2023/09/14 07:32:24;;;;;;;;;;;;;;;29.32;38.79;99858.72;3129947;28;20011;-82
2023/09/14 07:33:56;;;;;;;;;;;;;;;29.51;38.48;99863.44;3152841;28;19981;-76
2023/09/14 07:35:27;;;;;;;;;;;;;;;29.56;38.33;99861.03;3137543;28;19934;-76
2023/09/14 07:36:58;;;;;;;;;;;;;;;29.49;37.90;99854.75;3152918;28;20268;-80
2023/09/14 07:38:29;;;;;;;;;;;;;;;29.39;38.03;99855.06;3151737;28;19936;-74
2023/09/14 07:40:03;;;;;;;;;;;;;;;29.38;37.68;99847.22;3134891;28;20386;-73
2023/09/14 07:41:34;;;;;;;;;;;;;;;29.51;37.97;99855.38;3131976;28;19985;-76
2023/09/14 07:43:06;;;;;;;;;;;;;;;29.81;37.74;99847.22;3136615;28;19930;-75
2023/09/14 07:44:37;;;;;;;;;;;;;;;30.04;37.14;99858.59;3148491;28;19928;-74
2023/09/14 07:46:09;;;;;;;;;;;;;;;30.16;36.16;99853.50;3141241;28;19985;-79
2023/09/14 07:47:42;;;;;;;;;;;;;;;30.15;36.61;99849.19;3141259;28;19935;-72
2023/09/14 07:49:12;;;;;;;;;;;;;;;30.18;36.39;99846.09;3146525;28;19928;-72
2023/09/14 07:50:44;;;;;;;;;;;;;;;30.38;35.91;99852.47;3146252;28;19929;-72
2023/09/14 07:52:15;;;;;;;;;;;;;;;30.53;35.88;99846.97;3140175;28;19934;-69
2023/09/14 07:53:47;;;;;;;;;;;;;;;30.54;35.40;99845.94;3131919;28;19979;-71
2023/09/14 07:55:18;;;;;;;;;;;;;;;30.77;35.32;99844.81;3151091;28;19935;-69
2023/09/14 07:56:49;;;;;;;;;;;;;;;31.01;34.97;99836.25;3135471;28;20026;-69
2023/09/14 07:58:21;;;;;;;;;;;;;;;31.17;34.71;99832.38;3141652;28;19948;-70